aviador You're here:

SCVM Decoded Metar

in
Report Time2017-11-23 20:00:00
UTC Time2017-11-23 20:27:15
Flight Rules mvfr MVFR
Wind290° at 12 kt
W.Decomp.*RWY 23: 6.0 kt HW 10.4 kt RCW
W.Rank290° ranks 9
Current wind is above 290° avg. (6.6)
Visibility9999 m
Phenomena:N/A
Clouds:Broken 020 Hf
Expected CloudBase > 1,200 ft AGL from Temp-Dew spread
Ceiling2,000 ft
Temp15°C
Dew Point12°C (82% RH)
AAT11.3°C
QNH1015 hPa
Raw Report
METAR SCVM 232000Z 29012KT 9999 BKN020 15/12 Q1015=

Extra information for SCVM:More info

Social comments